Flight Track Log - Related Links

Times and Time Zones

All times are in EDT time to prevent confusion due to time zone crossing. See the SKQ225 flight status page for this flight to view local times or setup timezone preferences in your user account.

Time Position Orientation Groundspeed Altitude Reporting Facility
EDT Latitude Longitude Course Direction KTS MPH feet Rate Location/Type
Wed 02:16:41 AM 40.0394 -83.1350 228° Southwest 131 151 2,700  Level Indianapolis Center
Wed 02:18:00 AM 40.0047 -83.1825 226° Southwest 131 151 4,000 514 Climbing Indianapolis Center
Wed 02:19:01 AM 39.9747 -83.2225 226° Southwest 168 193 3,900 -50 Descending Indianapolis Center
Wed 02:20:01 AM 39.9469 -83.2628 228° Southwest 144 166 3,900  Level Indianapolis Center
Wed 02:21:02 AM 39.9211 -83.3006 228° Southwest 139 160 3,900  Level Indianapolis Center
Wed 02:22:00 AM 39.9160 -83.3113 228° Southwest  Level Estimated
Wed 02:22:03 AM 39.8894 -83.3322 218° Southwest 145 167 3,900  Level Indianapolis Center
Wed 02:23:03 AM 39.8561 -83.3608 213° Southwest 138 159 3,900  Level Indianapolis Center
Wed 02:24:04 AM 39.8247 -83.3894 215° Southwest 140 161 3,900  Level Indianapolis Center
Wed 02:25:04 AM 39.7911 -83.4208 216° Southwest 137 158 3,900  Level Indianapolis Center
Wed 02:25:59 AM 39.7581 -83.4411 205° Southwest 156 180 3,900  Level Indianapolis Center
Wed 02:27:00 AM 39.7192 -83.4581 199° South 148 170 3,900  Level Indianapolis Center
Wed 02:27:54 AM 39.6808 -83.4697 193° South 155 178 3,900  Level Indianapolis Center
Wed 02:28:55 AM 39.6381 -83.4808 191° South 161 185 3,900  Level Indianapolis Center
Wed 02:29:55 AM 39.5953 -83.4919 191° South 159 183 3,900  Level Indianapolis Center
Wed 02:30:56 AM 39.5503 -83.5053 193° South 159 183 3,900 49 Level Indianapolis Center
Wed 02:31:57 AM 39.5114 -83.5222 199° South 147 169 4,000  Climbing Indianapolis Center
Wed 02:32:57 AM 39.4797 -83.5561 220° Southwest 150 173 3,900 -50 Descending Indianapolis Center
Wed 02:33:58 AM 39.4578 -83.5967 235° Southwest 137 158 3,900  Level Indianapolis Center
Wed 02:34:58 AM 39.4339 -83.6369 232° Southwest 138 159 3,900  Level Indianapolis Center
Wed 02:35:59 AM 39.4122 -83.6747 233° Southwest 136 157 3,900  Level Indianapolis Center
Wed 02:37:00 AM 39.3881 -83.7178 234° Southwest 144 166 3,900  Level Indianapolis Center
Wed 02:38:00 AM 39.3642 -83.7581 233° Southwest 140 161 3,900  Level Indianapolis Center
Wed 02:39:18 AM 39.3367 -83.8050 233° Southwest 140 161 3,900  Level Indianapolis Center
Wed 02:40:18 AM 39.3139 -83.8464 235° Southwest 140 161 3,900  Level Indianapolis Center
Wed 02:41:18 AM 39.2892 -83.8875 232° Southwest 141 162 3,900  Level Indianapolis Center
Wed 02:42:19 AM 39.2642 -83.9292 232° Southwest 144 166 3,900  Level Indianapolis Center
Wed 02:43:19 AM 39.2392 -83.9714 233° Southwest 145 167 3,900  Level Indianapolis Center
Wed 02:44:19 AM 39.2139 -84.0139 232° Southwest 147 169 3,900  Level Indianapolis Center
Wed 02:45:19 AM 39.1894 -84.0567 234° Southwest 146 168 3,900  Level Indianapolis Center
Wed 02:46:19 AM 39.1647 -84.0981 232° Southwest 146 168 3,900  Level Indianapolis Center
Wed 02:47:20 AM 39.1397 -84.1406 233° Southwest 147 169 3,900  Level Indianapolis Center
Wed 02:48:20 AM 39.1142 -84.1839 233° Southwest 148 170 3,900  Level Indianapolis Center
Wed 02:49:20 AM 39.0886 -84.2269 233° Southwest 151 174 3,900  Level Indianapolis Center
Wed 02:50:20 AM 39.0631 -84.2686 232° Southwest 148 170 3,900  Level Indianapolis Center
Wed 02:51:20 AM 39.0375 -84.3133 234° Southwest 152 175 3,900 50 Level Indianapolis Center
Wed 02:52:20 AM 39.0103 -84.3578 232° Southwest 155 178 4,000  Climbing Indianapolis Center
Wed 02:53:21 AM 38.9836 -84.4028 233° Southwest 157 181 3,900 -50 Descending Indianapolis Center
Wed 02:54:21 AM 38.9572 -84.4475 233° Southwest 155 178 3,900  Level Indianapolis Center
Wed 02:55:21 AM 38.9342 -84.4867 233° Southwest 159 183 3,900  Level Indianapolis Center
Wed 02:56:21 AM 38.9053 -84.5369 234° Southwest 162 186 3,900  Level Indianapolis Center
Wed 02:57:21 AM 38.8781 -84.5811 232° Southwest 160 184 3,900  Level Indianapolis Center
Wed 02:58:22 AM 38.8508 -84.6275 233° Southwest 160 184 3,900  Level Indianapolis Center
Wed 02:59:22 AM 38.8214 -84.6739 231° Southwest 163 188 3,900  Level Indianapolis Center
Wed 03:00:22 AM 38.7956 -84.7186 233° Southwest 165 190 3,900  Level Indianapolis Center
Wed 03:01:22 AM 38.7700 -84.7628 233° Southwest 161 185 3,900  Level Indianapolis Center
Wed 03:02:22 AM 38.7428 -84.8056 231° Southwest 157 181 3,900  Level Indianapolis Center
Wed 03:03:23 AM 38.7181 -84.8475 233° Southwest 155 178 3,900  Level Indianapolis Center
Wed 03:04:23 AM 38.6925 -84.8897 232° Southwest 152 175 3,900  Level Indianapolis Center
Wed 03:05:23 AM 38.6675 -84.9317 233° Southwest 150 173 3,900  Level Indianapolis Center
Wed 03:06:23 AM 38.6436 -84.9719 233° Southwest 148 170 3,900  Level Indianapolis Center
Wed 03:07:23 AM 38.6169 -85.0156 232° Southwest 148 170 3,900  Level Indianapolis Center
Wed 03:08:23 AM 38.5908 -85.0597 233° Southwest 152 175 3,900  Level Indianapolis Center
Wed 03:09:24 AM 38.5653 -85.1000 231° Southwest 151 174 3,900  Level Indianapolis Center
Wed 03:10:24 AM 38.5400 -85.1422 233° Southwest 151 174 3,900  Level Indianapolis Center
Wed 03:11:24 AM 38.5133 -85.1856 232° Southwest 150 173 3,900  Level Indianapolis Center
Wed 03:12:24 AM 38.4856 -85.2314 232° Southwest 154 177 3,900  Level Indianapolis Center
Wed 03:13:24 AM 38.4617 -85.2697 231° Southwest 153 176 3,900  Level Indianapolis Center
Wed 03:14:25 AM 38.4350 -85.3144 233° Southwest 152 175 3,900  Level Indianapolis Center
Wed 03:15:25 AM 38.4094 -85.3542 231° Southwest 151 174 3,900  Level Indianapolis Center
Wed 03:16:25 AM 38.3844 -85.3947 232° Southwest 148 170 3,900  Level Indianapolis Center
Wed 03:17:25 AM 38.3586 -85.4378 233° Southwest 150 173 3,900  Level Indianapolis Center
Wed 03:18:25 AM 38.3303 -85.4847 232° Southwest 149 171 3,900 -325 Level Indianapolis Center
Wed 03:20:00 AM 38.2868 -85.5467 231° Southwest  Level FlightAware
Wed 03:20:48 AM 38.2667 -85.5833 231° Southwest 159 183 2,800  Level Louisville TRACON
Wed 03:22:14 AM 38.2431 -85.6614 249° West 131 151 2,800 -41 Level Indianapolis Center
Wed 03:23:14 AM 38.2264 -85.7028 243° Southwest 132 152 2,700 -100 Descending Indianapolis Center
Wed 03:25:00 AM 38.1667 -85.7333 231° Southwest  Level FlightAware
Wed 03:32:00 AM 38.1741 -85.7365 231° Southwest  Level Estimated

Login

Don't have an account? Register now (free) for customized features, flight alerts, and more!